Time;durP1;ratioP1;P1;durP2;ratioP2;P2;SDS_P1;SDS_P2;PMS_P1;PMS_P2;Temp;Humidity;BMP_temperature;BMP_pressure;BME280_temperature;BME280_humidity;BME280_pressure;Samples;Min_cycle;Max_cycle;Signal;HPM_P1;HPM_P2
2021/10/01 00:00:01;;;;;;;2.27;1.50;;;10.80;66.50;;;11.16;53.54;98365.97;5045572;28;20607;-37
2021/10/01 00:02:32;;;;;;;2.63;1.80;;;10.70;66.70;;;11.13;53.37;98368.94;5049634;28;20071;-38
2021/10/01 00:05:00;;;;;;;3.37;1.40;;;10.70;66.90;;;11.12;53.66;98365.44;5047446;28;20043;-37
2021/10/01 00:07:28;;;;;;;3.10;1.43;;;10.70;67.00;;;11.08;54.07;98369.38;5046821;28;20497;-38
2021/10/01 00:09:56;;;;;;;4.47;1.83;;;10.70;67.10;;;11.06;54.15;98362.53;5037813;28;20048;-37
2021/10/01 00:12:24;;;;;;;3.50;1.70;;;10.70;67.20;;;11.03;54.17;98358.31;5027473;28;20057;-37
2021/10/01 00:14:52;;;;;;;3.23;1.43;;;10.60;67.30;;;11.07;53.81;98356.19;5026629;28;20560;-37
2021/10/01 00:17:20;;;;;;;4.40;1.97;;;10.70;67.50;;;11.07;54.24;98342.88;5026712;28;20054;-37
2021/10/01 00:19:48;;;;;;;2.13;1.60;;;10.70;67.20;;;11.06;53.95;98343.88;5025990;28;20057;-37
2021/10/01 00:22:16;;;;;;;3.63;1.97;;;10.70;67.40;;;11.01;54.25;98336.28;5042959;28;20060;-37
2021/10/01 00:24:45;;;;;;;3.37;2.20;;;10.70;67.60;;;11.00;54.10;98337.31;5025602;28;20355;-39
2021/10/01 00:27:14;;;;;;;4.57;1.83;;;10.60;67.70;;;10.97;54.17;98329.59;5026441;28;20389;-37
2021/10/01 00:29:41;;;;;;;5.30;1.83;;;10.60;67.80;;;10.94;54.22;98329.91;5026714;28;20306;-37
2021/10/01 00:32:10;;;;;;;3.43;2.07;;;10.60;68.00;;;10.93;54.74;98326.38;5027085;28;20049;-37
2021/10/01 00:34:38;;;;;;;7.17;1.80;;;10.50;68.20;;;10.93;54.72;98323.72;5027374;28;20057;-39
2021/10/01 00:37:06;;;;;;;4.07;2.60;;;10.60;68.10;;;10.93;54.76;98325.53;5026180;28;20095;-39
2021/10/01 00:39:34;;;;;;;5.17;1.80;;;10.60;68.10;;;10.95;54.68;98337.75;5027311;28;20363;-39
2021/10/01 00:42:02;;;;;;;2.63;1.90;;;10.60;68.80;;;10.96;54.40;98328.75;5025977;28;20128;-39
2021/10/01 00:44:32;;;;;;;6.13;2.00;;;10.60;67.90;;;10.94;54.82;98322.75;5026313;28;20050;-39
2021/10/01 00:47:00;;;;;;;4.57;2.20;;;10.60;68.10;;;10.92;54.68;98321.22;5026080;28;20352;-39
2021/10/01 00:49:27;;;;;;;2.73;2.13;;;10.60;68.20;;;10.91;54.84;98320.34;5025896;28;20053;-39
2021/10/01 00:51:55;;;;;;;3.90;1.70;;;10.50;68.40;;;10.88;54.80;98320.66;5025271;28;20387;-39
2021/10/01 00:54:24;;;;;;;7.47;1.70;;;10.50;68.60;;;10.82;54.86;98313.25;5026865;28;20387;-39
2021/10/01 00:56:53;;;;;;;2.70;2.00;;;10.40;69.00;;;10.79;55.15;98313.53;5025812;28;20053;-39
2021/10/01 00:59:20;;;;;;;3.90;1.70;;;10.40;69.20;;;10.78;54.96;98309.22;5027310;28;20420;-39
2021/10/01 01:01:48;;;;;;;3.63;1.73;;;10.40;69.20;;;10.76;54.98;98306.69;5026304;28;20060;-39
2021/10/01 01:04:18;;;;;;;4.53;2.23;;;10.40;69.20;;;10.75;55.34;98299.69;5025676;28;20064;-39
2021/10/01 01:07:15;;;;;;;3.93;1.53;;;10.30;69.50;;;10.74;55.29;98306.00;5009895;28;20454;-39
2021/10/01 01:10:04;;;;;;;3.30;2.00;;;10.40;69.60;;;10.72;55.32;98294.66;5029150;28;20225;-39
2021/10/01 01:13:19;;;;;;;4.73;1.83;;;10.40;70.10;;;10.69;55.20;98292.28;5025347;28;20136;-39
2021/10/01 01:16:06;;;;;;;4.63;3.00;;;10.30;70.20;;;10.67;55.56;98285.44;5008423;28;20049;-39
2021/10/01 01:18:45;;;;;;;4.27;1.83;;;10.30;70.30;;;10.63;55.31;98293.69;5026958;28;20051;-39
2021/10/01 01:21:49;;;;;;;3.30;2.10;;;10.20;69.90;;;10.62;55.91;98285.84;5025482;28;20049;-39
2021/10/01 01:24:57;;;;;;;5.00;2.07;;;10.30;70.20;;;10.61;55.88;98286.84;5023307;28;20049;-40
2021/10/01 01:28:06;;;;;;;3.50;1.80;;;10.30;70.40;;;10.61;55.86;98284.19;5009474;28;20055;-39
2021/10/01 01:30:44;;;;;;;5.63;2.03;;;10.30;70.50;;;10.62;55.17;98288.50;5008618;28;20053;-39
2021/10/01 01:33:23;;;;;;;5.07;1.97;;;10.30;70.20;;;10.60;55.76;98285.16;5024661;28;20048;-39
2021/10/01 01:35:57;;;;;;;1.97;1.67;;;10.20;70.50;;;10.59;55.73;98283.50;5023966;28;20063;-39
2021/10/01 01:38:39;;;;;;;5.50;2.10;;;10.20;70.10;;;10.58;56.00;98276.47;5024836;28;20057;-39
2021/10/01 01:41:11;;;;;;;4.40;2.73;;;10.20;70.40;;;10.59;55.75;98276.34;5011163;28;20245;-39
2021/10/01 01:43:42;;;;;;;2.63;1.60;;;10.30;70.20;;;10.60;55.89;98266.53;5024914;28;20065;-39
2021/10/01 01:46:10;;;;;;;4.90;2.70;;;10.30;70.10;;;10.59;55.56;98263.03;5022895;28;20378;-39
2021/10/01 01:48:40;;;;;;;3.30;2.03;;;10.30;70.10;;;10.59;55.93;98267.53;5042068;28;20367;-39
2021/10/01 01:51:10;;;;;;;5.67;2.80;;;10.20;70.10;;;10.55;56.07;98258.16;5008779;28;20050;-39
2021/10/01 01:53:38;;;;;;;2.63;1.90;;;10.20;70.20;;;10.53;55.84;98262.78;5023990;28;20062;-39
2021/10/01 01:56:09;;;;;;;3.83;1.97;;;10.10;70.50;;;10.51;56.09;98257.59;5023265;28;20057;-39
2021/10/01 01:58:38;;;;;;;5.57;1.90;;;10.10;70.60;;;10.49;56.07;98251.59;5006655;28;20064;-39
2021/10/01 02:01:33;;;;;;;3.00;2.30;;;10.10;70.80;;;10.42;56.03;98243.31;5009831;28;20072;-39
2021/10/01 02:04:10;;;;;;;2.73;2.07;;;10.00;71.00;;;10.40;56.23;98247.97;5024964;28;20064;-39
2021/10/01 02:06:39;;;;;;;4.10;2.00;;;10.00;71.30;;;10.38;56.24;98247.25;5024352;28;20041;-39
2021/10/01 02:09:09;;;;;;;2.93;1.80;;;9.90;71.30;;;10.35;56.65;98238.72;5024808;28;20049;-39
2021/10/01 02:11:42;;;;;;;3.17;2.20;;;9.90;71.50;;;10.30;56.31;98233.00;5009439;28;20059;-38
2021/10/01 02:14:22;;;;;;;3.28;2.03;;;9.90;71.70;;;10.29;56.21;98240.13;5008433;28;20045;-39
2021/10/01 02:16:51;;;;;;;4.93;1.80;;;9.80;71.70;;;10.26;56.72;98232.44;5007745;28;20275;-39
2021/10/01 02:19:22;;;;;;;3.93;2.30;;;9.80;71.80;;;10.23;56.52;98230.88;5007212;28;20248;-39
2021/10/01 02:21:52;;;;;;;4.07;1.80;;;9.80;72.00;;;10.22;56.69;98228.38;5023111;28;20055;-39
2021/10/01 02:24:23;;;;;;;3.83;2.10;;;9.80;71.90;;;10.21;56.56;98226.69;5007174;28;20057;-39
2021/10/01 02:27:40;;;;;;;3.43;1.80;;;9.80;72.00;;;10.19;57.00;98218.84;5023251;28;20370;-39
2021/10/01 02:30:14;;;;;;;4.60;2.13;;;9.80;72.20;;;10.21;56.57;98216.88;5023103;28;20059;-39
2021/10/01 02:33:01;;;;;;;2.63;2.10;;;9.80;71.70;;;10.20;56.27;98214.41;5022125;28;20247;-39
2021/10/01 02:35:29;;;;;;;2.63;1.90;;;9.80;72.40;;;10.19;56.68;98218.84;5023262;28;20049;-39
2021/10/01 02:37:57;;;;;;;2.43;1.80;;;9.80;71.80;;;10.19;56.55;98218.84;5040558;28;20286;-39
2021/10/01 02:40:26;;;;;;;4.07;2.00;;;9.80;71.90;;;10.17;56.57;98214.66;5023878;28;20067;-39
2021/10/01 02:42:54;;;;;;;5.33;2.43;;;9.70;72.00;;;10.12;56.93;98208.94;5041418;28;20049;-39
2021/10/01 02:45:22;;;;;;;4.63;2.43;;;9.70;72.30;;;10.03;56.91;98203.50;5023039;28;20065;-39
2021/10/01 02:47:51;;;;;;;4.40;2.20;;;9.60;72.80;;;9.96;57.29;98204.22;5041625;28;20060;-39
2021/10/01 02:50:22;;;;;;;4.73;1.93;;;9.50;73.30;;;9.86;57.31;98199.75;5025886;28;20057;-39
2021/10/01 02:53:23;;;;;;;2.83;2.07;;;9.40;73.90;;;9.80;57.29;98194.19;5024913;28;20057;-39
2021/10/01 02:56:14;;;;;;;3.90;2.20;;;9.30;74.80;;;9.78;57.47;98194.31;5029481;28;20064;-39
2021/10/01 02:58:54;;;;;;;3.27;2.10;;;9.40;74.20;;;9.81;57.84;98187.91;5012562;28;20071;-39
2021/10/01 03:01:25;;;;;;;3.07;1.70;;;9.40;73.90;;;9.84;57.92;98192.91;5027348;28;20319;-39
2021/10/01 03:04:06;;;;;;;3.57;1.90;;;9.50;73.60;;;9.84;57.73;98191.09;5027212;28;20075;-39
2021/10/01 03:06:41;;;;;;;3.27;1.70;;;9.50;73.50;;;9.83;57.51;98189.41;5028395;28;20333;-39
2021/10/01 03:09:10;;;;;;;4.63;1.97;;;9.40;73.40;;;9.80;57.59;98186.19;5010388;28;20483;-39
2021/10/01 03:11:40;;;;;;;3.77;2.20;;;9.40;73.50;;;9.78;57.28;98183.69;5011561;28;20061;-39
2021/10/01 03:14:09;;;;;;;5.07;2.00;;;9.40;73.70;;;9.75;57.59;98178.66;5027590;28;20056;-39
2021/10/01 03:16:38;;;;;;;4.73;2.10;;;9.30;73.70;;;9.75;57.72;98189.31;5024951;28;20061;-39
2021/10/01 03:19:07;;;;;;;4.23;2.40;;;9.30;73.80;;;9.74;57.65;98187.59;5027541;28;20050;-39
2021/10/01 03:21:36;;;;;;;4.43;1.77;;;9.30;73.80;;;9.74;57.82;98184.13;5009632;28;20065;-39
2021/10/01 03:24:05;;;;;;;3.43;2.33;;;9.30;73.80;;;9.72;57.94;98178.94;5010673;28;20045;-39
2021/10/01 03:26:34;;;;;;;2.87;1.60;;;9.30;74.00;;;9.67;58.24;98178.53;5026482;28;20061;-39
2021/10/01 03:29:03;;;;;;;3.37;2.10;;;9.30;73.90;;;9.66;58.31;98175.03;5043290;28;20054;-39
2021/10/01 03:31:33;;;;;;;4.33;2.10;;;9.10;73.80;;;9.64;57.85;98174.34;5012018;28;20375;-39
2021/10/01 03:34:01;;;;;;;3.50;2.00;;;9.20;74.00;;;9.62;57.95;98173.63;5010941;28;20053;-39
2021/10/01 03:36:30;;;;;;;3.87;1.90;;;9.20;74.20;;;9.59;57.89;98175.75;5010158;28;20061;-39
2021/10/01 03:39:00;;;;;;;3.70;1.80;;;9.10;74.20;;;9.58;58.20;98177.56;5011259;28;20045;-39
2021/10/01 03:41:28;;;;;;;3.23;2.03;;;9.20;74.20;;;9.57;57.88;98170.56;5027437;28;20065;-39
2021/10/01 03:43:56;;;;;;;3.47;2.23;;;9.20;74.20;;;9.54;57.98;98170.84;5026704;28;20064;-39
2021/10/01 03:46:24;;;;;;;3.33;2.50;;;9.10;74.30;;;9.53;58.15;98169.16;5027827;28;20064;-39
2021/10/01 03:48:52;;;;;;;3.53;2.30;;;9.10;74.40;;;9.53;58.13;98173.66;5027120;28;20056;-39
2021/10/01 03:51:23;;;;;;;3.03;2.20;;;9.10;74.40;;;9.51;58.26;98171.13;5026858;28;20065;-39
2021/10/01 03:53:53;;;;;;;5.67;2.37;;;9.10;74.40;;;9.50;58.46;98168.59;5026322;28;20075;-39
2021/10/01 03:56:22;;;;;;;4.73;1.93;;;9.10;74.30;;;9.50;58.27;98169.47;5025881;28;20065;-39
2021/10/01 03:58:50;;;;;;;5.17;2.40;;;9.10;74.20;;;9.48;58.24;98167.91;5028021;28;20078;-39
2021/10/01 04:01:18;;;;;;;3.40;1.93;;;9.00;74.30;;;9.45;58.00;98158.41;5027037;28;20049;-39
2021/10/01 04:03:46;;;;;;;3.13;1.90;;;9.00;74.40;;;9.42;58.26;98162.19;5026743;28;20045;-39
2021/10/01 04:06:16;;;;;;;3.10;1.90;;;8.90;74.60;;;9.40;58.50;98160.63;5024995;28;20049;-39
2021/10/01 04:08:46;;;;;;;3.93;2.30;;;8.90;74.80;;;9.38;58.61;98157.28;5026798;28;20373;-39
2021/10/01 04:11:14;;;;;;;4.83;3.13;;;8.90;74.80;;;9.34;58.65;98151.41;5027608;28;20682;-39
2021/10/01 04:13:43;;;;;;;4.90;2.40;;;8.90;75.10;;;9.32;58.72;98149.88;5027289;28;20060;-39
2021/10/01 04:16:11;;;;;;;3.43;1.73;;;8.80;75.20;;;9.29;58.67;98153.69;5027136;28;20053;-39
2021/10/01 04:18:43;;;;;;;3.80;2.63;;;8.80;75.30;;;9.26;58.93;98143.31;5026006;28;20061;-39
2021/10/01 04:21:11;;;;;;;3.97;2.43;;;8.80;75.30;;;9.23;58.89;98140.97;5025351;28;20091;-39
2021/10/01 04:23:41;;;;;;;6.73;2.67;;;8.80;75.50;;;9.20;58.90;98142.06;5026548;28;20057;-39
2021/10/01 04:26:32;;;;;;;4.30;2.40;;;8.80;75.60;;;9.20;58.90;98143.88;5026971;28;20057;-39
2021/10/01 04:29:00;;;;;;;2.87;2.00;;;8.80;75.70;;;9.16;58.79;98135.34;5024938;28;20050;-39
2021/10/01 04:31:28;;;;;;;3.30;2.30;;;8.70;76.00;;;9.16;58.82;98138.00;5027057;28;20364;-39
2021/10/01 04:33:58;;;;;;;4.70;2.30;;;8.70;76.00;;;9.16;58.96;98140.66;5027489;28;20271;-39
2021/10/01 04:36:26;;;;;;;3.97;2.30;;;8.70;76.00;;;9.14;59.19;98139.13;5025182;28;20053;-39
2021/10/01 04:38:54;;;;;;;3.27;2.30;;;8.70;76.00;;;9.13;59.21;98143.63;5026209;28;20060;-39
2021/10/01 04:41:23;;;;;;;5.80;2.10;;;8.70;76.10;;;9.12;59.06;98144.59;5041426;28;20071;-39
2021/10/01 04:43:51;;;;;;;3.20;1.90;;;8.70;76.20;;;9.13;59.08;98145.41;5026475;28;20072;-39
2021/10/01 04:46:45;;;;;;;3.38;2.10;;;8.70;76.00;;;9.10;59.13;98159.81;5026087;28;20376;-39
2021/10/01 04:49:13;;;;;;;3.20;1.87;;;8.60;76.00;;;9.09;59.30;98157.28;5025266;28;20526;-39
2021/10/01 04:51:41;;;;;;;3.90;2.00;;;8.60;76.20;;;9.10;59.16;98153.69;5027210;28;20064;-39
2021/10/01 04:54:09;;;;;;;3.27;2.00;;;8.70;76.00;;;9.08;59.23;98151.16;5026155;28;20049;-39
2021/10/01 04:56:37;;;;;;;5.67;2.47;;;8.70;76.00;;;9.06;59.26;98145.97;5026171;28;20057;-39
2021/10/01 04:59:05;;;;;;;6.30;2.50;;;8.60;75.90;;;9.04;59.06;98144.44;5025666;28;20059;-39
2021/10/01 05:01:56;;;;;;;3.07;2.13;;;8.60;76.20;;;9.03;59.25;98145.41;5025046;28;20061;-39
2021/10/01 05:04:42;;;;;;;3.20;2.00;;;8.60;76.20;;;9.00;59.32;98143.88;5028730;28;20389;-39
2021/10/01 05:07:36;;;;;;;5.57;2.40;;;8.60;76.40;;;8.98;59.39;98150.31;5025932;28;20065;-39
2021/10/01 05:10:23;;;;;;;4.70;2.00;;;8.50;76.60;;;8.96;59.40;98146.97;5029556;28;20254;-39
2021/10/01 05:13:11;;;;;;;3.10;2.20;;;8.50;76.70;;;8.96;59.56;98139.00;5024944;28;20058;-39
2021/10/01 05:16:02;;;;;;;3.90;2.57;;;8.50;76.60;;;8.95;59.50;98143.44;5025499;28;20061;-39
2021/10/01 05:18:48;;;;;;;3.30;1.70;;;8.60;76.60;;;9.01;59.48;98137.56;5026615;28;20056;-39
2021/10/01 05:21:45;;;;;;;4.37;2.97;;;8.70;76.30;;;9.07;59.58;98139.69;5016124;28;20065;-39
2021/10/01 05:24:14;;;;;;;4.13;2.40;;;8.80;75.80;;;9.10;59.47;98143.88;5040108;28;20420;-39
2021/10/01 05:26:43;;;;;;;4.73;2.00;;;8.80;75.40;;;9.10;59.30;98143.88;5025149;28;20432;-39
2021/10/01 05:29:10;;;;;;;3.97;1.90;;;8.70;75.20;;;9.06;59.23;98147.81;5025219;28;20055;-38
2021/10/01 05:31:38;;;;;;;3.73;2.00;;;8.70;75.60;;;9.04;59.21;98145.28;5026025;28;20037;-39
2021/10/01 05:34:06;;;;;;;5.93;2.30;;;8.60;75.60;;;9.03;59.33;98148.94;5023005;28;20467;-39
2021/10/01 05:36:35;;;;;;;6.37;2.30;;;8.60;75.70;;;9.03;59.35;98143.63;5025757;28;20049;-39
2021/10/01 05:39:03;;;;;;;2.70;1.80;;;8.60;75.70;;;9.04;59.45;98144.44;5025105;28;20061;-39
2021/10/01 05:41:32;;;;;;;2.93;2.30;;;8.70;75.70;;;9.06;59.27;98139.84;5026947;28;20075;-39
2021/10/01 05:44:01;;;;;;;5.13;2.20;;;8.70;75.50;;;9.08;59.40;98148.50;5024030;28;20061;-39
2021/10/01 05:46:29;;;;;;;4.33;2.33;;;8.70;75.40;;;9.09;59.50;98141.34;5024550;28;20063;-39
2021/10/01 05:49:26;;;;;;;7.60;2.50;;;8.80;75.50;;;9.12;59.52;98146.41;5028477;28;20047;-39
2021/10/01 05:55:03;;;;;;;4.23;2.03;;;8.80;75.60;;;9.11;59.44;98142.06;5024746;28;20471;-38
2021/10/01 05:58:00;;;;;;;5.20;2.37;;;8.70;75.70;;;9.10;59.59;98146.53;5021157;28;20064;-39
2021/10/01 06:00:36;;;;;;;3.33;2.33;;;8.70;75.90;;;9.07;59.57;98141.50;5010414;28;20057;-39
2021/10/01 06:03:04;;;;;;;4.20;2.20;;;8.70;76.00;;;9.08;59.63;98140.53;5024108;28;20045;-38
2021/10/01 06:05:34;;;;;;;2.83;1.80;;;8.70;76.00;;;9.08;59.54;98135.22;5024150;28;20057;-38
2021/10/01 06:08:01;;;;;;;4.60;2.33;;;8.70;75.90;;;9.10;59.52;98132.44;5025879;28;20049;-39
2021/10/01 06:10:29;;;;;;;3.80;2.00;;;8.80;75.80;;;9.13;59.63;98135.66;5025241;28;20057;-38
2021/10/01 06:12:57;;;;;;;3.53;1.93;;;8.80;76.50;;;9.15;59.71;98130.16;5025779;28;20057;-38
2021/10/01 06:15:25;;;;;;;4.80;2.43;;;8.90;75.60;;;9.17;59.49;98129.06;5025054;28;20061;-38
2021/10/01 06:17:53;;;;;;;2.67;2.07;;;8.90;75.50;;;9.21;59.68;98126.97;5025216;28;20056;-39
2021/10/01 06:20:23;;;;;;;4.07;1.77;;;8.90;75.50;;;9.21;59.64;98132.28;5024809;28;20348;-39
2021/10/01 06:22:52;;;;;;;3.80;2.50;;;9.00;75.20;;;9.27;59.58;98134.38;5024161;28;20056;-39
2021/10/01 06:25:19;;;;;;;5.37;1.63;;;9.00;75.00;;;9.34;59.75;98134.63;5026526;28;20242;-39
2021/10/01 06:27:48;;;;;;;5.47;2.03;;;9.10;74.90;;;9.37;59.74;98137.03;5024375;28;20087;-38
2021/10/01 06:30:17;;;;;;;4.80;2.23;;;9.20;74.90;;;9.42;59.75;98135.63;5024233;28;20171;-38
2021/10/01 06:32:45;;;;;;;4.33;1.93;;;9.20;74.70;;;9.47;59.41;98135.19;5024886;28;20394;-39
2021/10/01 06:35:13;;;;;;;5.83;1.93;;;9.30;74.60;;;9.53;59.55;98139.94;5025133;28;20079;-38
2021/10/01 06:37:41;;;;;;;5.77;2.00;;;9.30;74.50;;;9.58;59.38;98140.34;5024072;28;20061;-38
2021/10/01 06:40:09;;;;;;;3.90;2.00;;;9.40;74.20;;;9.64;59.51;98142.44;5025021;28;20057;-38
2021/10/01 06:42:41;;;;;;;2.90;1.80;;;9.50;74.20;;;9.70;59.43;98137.53;5023966;28;20069;-38
2021/10/01 06:45:28;;;;;;;3.50;1.90;;;9.60;74.10;;;9.75;59.36;98135.25;5024320;28;20053;-38
2021/10/01 06:51:16;;;;;;;2.33;1.67;;;9.60;73.80;;;9.86;59.29;98127.13;5025250;28;20045;-38
2021/10/01 08:21:09;;;;;;;2.60;1.83;;;11.90;72.00;;;11.87;58.46;98103.81;5063345;28;20045;-39
2021/10/01 08:23:38;;;;;;;4.00;1.77;;;12.00;71.60;;;11.94;58.36;98114.72;5062826;28;20056;-39
2021/10/01 08:26:07;;;;;;;2.90;1.63;;;12.10;71.30;;;11.97;58.19;98111.75;5063378;28;20055;-37
2021/10/01 08:28:35;;;;;;;1.83;1.60;;;12.10;70.90;;;12.04;58.29;98109.25;5062631;28;20055;-37
2021/10/01 08:31:12;;;;;;;3.58;2.22;;;12.10;70.80;;;12.09;58.36;98101.63;5060590;28;22698;-37
2021/10/01 08:33:40;;;;;;;5.30;1.90;;;12.20;71.00;;;12.14;58.33;98096.66;5050882;28;20041;-36
2021/10/01 08:36:08;;;;;;;6.95;2.17;;;12.20;70.80;;;12.19;57.99;98099.66;5062515;28;20056;-39
2021/10/01 08:38:39;;;;;;;8.65;2.67;;;12.30;70.70;;;12.24;58.27;98093.84;5061783;28;20238;-37
2021/10/01 08:41:09;;;;;;;5.65;2.58;;;12.40;71.00;;;12.32;58.27;98096.56;5061770;28;20045;-39
2021/10/01 08:43:42;;;;;;;8.85;2.33;;;12.40;70.90;;;12.39;58.26;98097.59;5055319;28;20057;-38
2021/10/01 08:46:12;;;;;;;8.50;2.35;;;12.50;70.70;;;12.45;58.19;98088.09;5059894;28;20063;-38
2021/10/01 08:48:42;;;;;;;6.55;2.00;;;12.50;70.70;;;12.51;58.16;98088.28;5063025;28;20049;-38
2021/10/01 08:51:14;;;;;;;2.65;1.65;;;12.60;70.50;;;12.60;57.91;98091.78;5061432;28;20041;-38
2021/10/01 08:53:44;;;;;;;3.60;1.83;;;12.70;70.50;;;12.68;57.53;98085.63;5061856;28;20057;-38
2021/10/01 08:56:13;;;;;;;3.10;1.50;;;12.80;69.90;;;12.73;57.20;98081.47;5061890;28;20055;-47
2021/10/01 08:58:42;;;;;;;5.15;1.85;;;12.80;69.70;;;12.80;57.48;98079.81;5060309;28;20143;-38
2021/10/01 09:01:10;;;;;;;3.08;1.83;;;12.90;69.70;;;12.85;57.13;98081.97;5060761;28;20227;-38
2021/10/01 09:03:43;;;;;;;3.50;1.67;;;13.00;69.40;;;12.91;57.31;98073.34;5061427;28;20059;-38
2021/10/01 09:06:18;;;;;;;3.10;1.23;;;13.10;69.20;;;12.99;57.22;98064.50;5062531;28;20255;-38
2021/10/01 09:08:54;;;;;;;3.40;1.58;;;13.20;69.10;;;13.06;56.28;98070.81;5060933;28;20057;-38
2021/10/01 09:11:38;;;;;;;4.82;1.70;;;13.20;68.30;;;13.12;56.54;98061.28;5059444;28;20047;-38
2021/10/01 09:14:12;;;;;;;2.53;1.35;;;13.30;67.90;;;13.19;56.56;98063.13;5061928;28;20063;-38
2021/10/01 09:16:42;;;;;;;2.65;1.45;;;13.40;68.10;;;13.29;56.54;98062.97;5059999;28;20342;-38
2021/10/01 09:19:11;;;;;;;3.15;1.50;;;13.50;68.30;;;13.36;56.25;98060.50;5059223;28;20045;-38
2021/10/01 09:21:48;;;;;;;8.25;1.25;;;13.50;67.90;;;13.42;56.09;98059.00;5059113;28;20048;-38
2021/10/01 09:24:25;;;;;;;2.50;1.42;;;13.60;67.50;;;13.45;55.63;98050.63;5059013;28;20247;-38
2021/10/01 09:26:57;;;;;;;3.33;1.40;;;13.60;67.80;;;13.52;56.08;98044.41;5060606;28;20052;-38
2021/10/01 09:29:34;;;;;;;2.88;1.42;;;13.70;67.80;;;13.58;55.35;98049.06;5061861;28;20053;-38
2021/10/01 09:32:11;;;;;;;3.05;2.50;;;13.80;67.10;;;13.67;55.42;98046.41;5060857;28;20051;-38
2021/10/01 09:34:47;;;;;;;1.95;1.20;;;13.80;66.40;;;13.68;55.27;98037.34;5050788;28;20045;-38
2021/10/01 09:37:30;;;;;;;1.90;1.42;;;13.80;66.10;;;13.70;54.94;98033.50;5059398;28;20059;-38
2021/10/01 09:40:02;;;;;;;1.92;1.40;;;13.80;66.30;;;13.81;55.24;98024.28;5062431;28;20056;-38
2021/10/01 09:42:43;;;;;;;1.75;1.20;;;13.90;66.70;;;13.90;54.94;98019.72;5060498;28;20064;-38
2021/10/01 09:45:14;;;;;;;3.38;1.55;;;14.00;66.40;;;13.94;54.91;98013.88;5054336;28;20063;-38
2021/10/01 09:47:46;;;;;;;2.15;1.20;;;14.10;66.20;;;14.02;54.61;98012.16;5049655;28;20451;-39
2021/10/01 09:50:30;;;;;;;3.08;1.25;;;14.20;65.80;;;14.09;54.48;98008.59;5046497;28;20071;-38
2021/10/01 09:53:05;;;;;;;2.85;1.83;;;14.30;65.20;;;14.14;54.53;98006.22;5045482;28;20045;-38
2021/10/01 09:55:35;;;;;;;1.65;1.48;;;14.30;65.30;;;14.18;54.03;98004.88;5045594;28;20063;-38
2021/10/01 09:58:11;;;;;;;1.85;1.40;;;14.30;64.90;;;14.23;53.97;98000.81;5046634;28;20065;-38
2021/10/01 10:00:53;;;;;;;3.13;1.30;;;14.40;64.50;;;14.29;53.40;97995.63;5043882;28;20065;-38
2021/10/01 10:03:24;;;;;;;6.05;2.30;;;14.50;64.20;;;14.35;53.81;97992.22;5044001;28;20099;-38
2021/10/01 10:06:05;;;;;;;3.60;1.42;;;14.50;64.50;;;14.47;53.46;97981.94;5045087;28;20053;-38
2021/10/01 10:08:42;;;;;;;3.50;1.70;;;14.70;64.00;;;14.53;52.18;97980.41;5045851;28;20065;-38
2021/10/01 10:11:18;;;;;;;1.40;1.00;;;14.80;62.80;;;14.64;52.96;97985.38;5042588;28;20055;-38
2021/10/01 10:13:53;;;;;;;4.00;1.52;;;14.80;63.50;;;14.67;53.09;97976.97;5043842;28;20049;-38
2021/10/01 10:16:29;;;;;;;2.35;1.20;;;14.90;63.20;;;14.70;52.46;97970.44;5044313;28;20063;-38
2021/10/01 10:19:06;;;;;;;2.28;1.25;;;14.90;63.50;;;14.73;53.05;97970.91;5046381;28;20055;-38
2021/10/01 10:21:36;;;;;;;2.17;1.50;;;14.90;63.50;;;14.80;53.15;97959.47;5044205;28;20453;-38
2021/10/01 10:24:05;;;;;;;2.85;1.40;;;15.00;63.60;;;14.84;52.70;97964.28;5044920;28;20060;-38
2021/10/01 10:26:33;;;;;;;2.65;1.23;;;15.00;63.10;;;14.87;52.59;97971.13;5045931;28;20474;-38
2021/10/01 10:29:04;;;;;;;3.38;1.30;;;15.00;63.00;;;14.91;52.20;97965.22;5043437;28;20048;-38
2021/10/01 10:31:36;;;;;;;4.22;1.25;;;15.00;62.40;;;14.98;51.68;97957.28;5045371;28;20373;-39
2021/10/01 10:34:25;;;;;;;2.85;1.27;;;15.10;61.60;;;15.02;51.49;97966.63;5044911;28;20052;-38
2021/10/01 10:37:13;;;;;;;3.53;1.27;;;15.20;60.20;;;15.10;51.26;97960.34;5045642;28;20060;-39
2021/10/01 10:39:54;;;;;;;3.00;1.50;;;15.30;59.00;;;15.24;50.82;97956.06;5045054;28;20053;-39
2021/10/01 10:42:31;;;;;;;2.30;1.40;;;15.50;59.60;;;15.34;51.32;97957.44;5044775;28;20063;-38
2021/10/01 10:45:23;;;;;;;1.73;1.17;;;15.50;60.50;;;15.38;50.29;97955.22;5045088;28;20056;-38
2021/10/01 10:47:56;;;;;;;1.48;1.10;;;15.60;58.80;;;15.40;50.75;97958.56;5043349;28;20045;-39
2021/10/01 10:50:44;;;;;;;3.95;1.50;;;15.60;59.80;;;15.43;49.51;97951.97;5043217;28;20067;-38
2021/10/01 10:53:19;;;;;;;1.55;1.13;;;15.70;58.60;;;15.48;50.04;97939.66;5045325;28;20432;-39
2021/10/01 10:55:57;;;;;;;2.63;1.00;;;15.70;58.90;;;15.50;49.87;97934.94;5045094;28;20059;-39
2021/10/01 10:58:25;;;;;;;2.05;1.20;;;15.70;58.90;;;15.59;50.08;97933.03;5045254;28;20343;-39
2021/10/01 11:01:20;;;;;;;2.50;1.02;;;15.80;59.30;;;15.60;49.85;97929.31;5045503;28;20053;-37
2021/10/01 11:03:54;;;;;;;1.65;1.23;;;15.80;57.70;;;15.65;50.58;97924.22;5044173;28;20075;-37
2021/10/01 11:06:22;;;;;;;3.67;1.73;;;15.80;59.90;;;15.73;49.77;97928.69;5043319;28;20051;-37
2021/10/01 11:09:14;;;;;;;15.43;1.80;;;15.90;59.20;;;15.83;48.69;97931.91;5043671;28;20061;-37
2021/10/01 11:11:45;;;;;;;3.10;1.52;;;16.00;56.00;;;15.89;48.54;97920.41;5042423;28;20361;-38
2021/10/01 11:14:17;;;;;;;4.82;1.63;;;16.10;57.40;;;15.96;48.00;97925.03;5047177;28;20044;-38
2021/10/01 11:17:07;;;;;;;2.42;1.17;;;16.20;56.90;;;16.02;47.54;97924.28;5047822;28;20078;-38
2021/10/01 11:19:49;;;;;;;2.28;1.20;;;16.30;54.90;;;16.08;47.71;97921.66;5043358;28;20377;-38
2021/10/01 11:22:39;;;;;;;8.57;1.80;;;16.30;55.70;;;16.16;47.51;97919.88;5048690;28;20379;-38
2021/10/01 11:25:16;;;;;;;6.45;2.47;;;16.40;54.70;;;16.20;47.51;97905.88;5047566;28;20057;-38
2021/10/01 11:28:02;;;;;;;1.98;1.20;;;16.40;56.20;;;16.25;45.46;97899.94;5048560;28;20057;-38
2021/10/01 11:30:37;;;;;;;4.55;1.30;;;16.50;53.90;;;16.37;47.65;97905.66;5050145;28;20224;-38
2021/10/01 11:33:12;;;;;;;2.53;1.30;;;16.60;56.40;;;16.40;47.24;97900.72;5047761;28;20059;-38
2021/10/01 11:36:09;;;;;;;1.70;1.08;;;16.60;55.20;;;16.42;47.45;97897.81;5047291;28;20064;-38
2021/10/01 11:38:37;;;;;;;1.55;1.00;;;16.70;54.10;;;16.48;46.85;97892.53;5043711;28;20063;-38
2021/10/01 11:41:15;;;;;;;1.70;1.00;;;16.70;55.60;;;16.52;46.52;97890.28;5047363;28;20053;-38
2021/10/01 11:43:55;;;;;;;2.38;1.42;;;16.70;54.20;;;16.52;46.26;97888.44;5046832;28;20375;-38
2021/10/01 11:46:34;;;;;;;5.38;1.40;;;16.80;54.70;;;16.59;46.34;97872.34;5047579;28;20061;-38
2021/10/01 11:49:16;;;;;;;4.18;1.27;;;16.70;54.60;;;16.61;46.48;97870.28;5046960;28;20347;-38
2021/10/01 11:52:12;;;;;;;4.13;1.58;;;16.80;54.70;;;16.66;46.77;97864.34;5046557;28;20373;-37
2021/10/01 11:54:59;;;;;;;3.42;1.02;;;16.90;53.60;;;16.70;44.63;97853.00;5047836;28;20045;-39
2021/10/01 11:57:40;;;;;;;5.82;1.00;;;16.90;52.50;;;16.73;45.04;97858.00;5047202;28;20055;-39
2021/10/01 12:00:15;;;;;;;1.42;1.00;;;16.90;52.10;;;16.76;45.03;97846.03;5047409;28;20044;-39
2021/10/01 12:02:46;;;;;;;2.38;1.10;;;17.00;53.00;;;16.75;45.13;97844.38;5046907;28;20063;-39
2021/10/01 12:05:32;;;;;;;2.90;1.50;;;17.00;52.70;;;16.81;45.15;97843.59;5048116;28;20587;-38
2021/10/01 12:08:11;;;;;;;3.78;1.15;;;17.10;51.30;;;16.85;45.57;97836.00;5047026;28;20053;-38
2021/10/01 12:10:46;;;;;;;3.17;1.10;;;17.10;52.10;;;16.89;45.18;97830.00;5047206;28;20057;-38
2021/10/01 12:13:33;;;;;;;3.53;1.23;;;17.20;53.50;;;17.03;45.25;97825.53;5047710;28;20045;-39
2021/10/01 12:16:11;;;;;;;;;;;17.30;53.50;;;17.08;44.87;97823.09;5047092;28;20251;-39
2021/10/01 12:18:57;;;;;;;1.52;1.30;;;17.40;50.30;;;17.23;45.32;97822.13;5047631;28;19931;-39
2021/10/01 12:21:31;;;;;;;2.10;1.10;;;17.40;52.80;;;17.33;45.14;97819.91;5045127;28;20056;-39
2021/10/01 12:24:11;;;;;;;1.25;1.10;;;17.50;53.00;;;17.35;44.43;97817.88;5045809;28;20056;-39
2021/10/01 12:26:44;;;;;;;2.75;1.20;;;17.60;52.30;;;17.43;44.12;97816.84;5045323;28;20057;-39
2021/10/01 12:29:27;;;;;;;3.83;1.20;;;17.70;53.00;;;17.52;44.26;97815.63;5032773;28;20080;-39